createdAt,value
2018-05-29T00:00:28.300Z,6.67
2018-05-29T00:02:55.776Z,6.20
2018-05-29T00:05:23.224Z,6.40
2018-05-29T00:07:50.673Z,5.57
2018-05-29T00:10:18.160Z,6.27
2018-05-29T00:12:46.373Z,6.57
2018-05-29T00:15:13.956Z,6.10
2018-05-29T00:17:41.404Z,6.30
2018-05-29T00:20:08.853Z,5.97
2018-05-29T00:22:36.320Z,5.90
2018-05-29T00:25:03.783Z,6.17
2018-05-29T00:27:31.235Z,6.97
2018-05-29T00:29:58.726Z,6.63
2018-05-29T00:32:26.209Z,7.20
2018-05-29T00:34:54.425Z,6.23
2018-05-29T00:37:21.888Z,6.27
2018-05-29T00:39:49.356Z,6.13
2018-05-29T00:42:16.821Z,6.60
2018-05-29T00:44:44.274Z,6.90
2018-05-29T00:47:11.744Z,6.77
2018-05-29T00:49:39.204Z,6.17
2018-05-29T00:52:06.687Z,6.50
2018-05-29T00:54:34.902Z,6.23
2018-05-29T00:57:02.361Z,7.17
2018-05-29T00:59:30.317Z,6.37
2018-05-29T01:01:57.899Z,6.20
2018-05-29T01:04:25.400Z,6.07
2018-05-29T01:06:53.628Z,6.27
2018-05-29T01:09:21.101Z,6.17
2018-05-29T01:11:48.581Z,6.50
2018-05-29T01:14:16.804Z,6.07
2018-05-29T01:16:44.273Z,6.37
2018-05-29T01:19:11.721Z,6.07
2018-05-29T01:21:39.212Z,6.23
2018-05-29T01:24:06.682Z,6.77
2018-05-29T01:26:34.160Z,6.50
2018-05-29T01:29:01.612Z,6.70
2018-05-29T01:31:29.855Z,6.97
2018-05-29T01:33:57.307Z,6.53
2018-05-29T01:36:24.761Z,6.47
2018-05-29T01:38:52.249Z,6.73
2018-05-29T01:41:20.487Z,6.00
2018-05-29T01:43:47.940Z,6.13
2018-05-29T01:46:15.393Z,6.23
2018-05-29T01:48:42.874Z,5.97
2018-05-29T01:51:10.329Z,6.27
2018-05-29T01:53:37.815Z,6.30
2018-05-29T01:56:06.024Z,6.40
2018-05-29T01:58:33.502Z,6.47
2018-05-29T02:01:00.970Z,7.07
2018-05-29T02:03:28.429Z,6.50
2018-05-29T02:05:55.893Z,6.47
2018-05-29T02:08:23.340Z,6.20
2018-05-29T02:10:50.815Z,6.17
2018-05-29T02:13:18.285Z,5.90
2018-05-29T02:15:46.520Z,5.97
2018-05-29T02:18:13.985Z,5.80
2018-05-29T02:20:41.445Z,6.20
2018-05-29T02:23:08.881Z,6.43
2018-05-29T02:25:36.345Z,6.37
2018-05-29T02:28:03.821Z,6.00
2018-05-29T02:30:32.191Z,6.30
2018-05-29T02:32:59.646Z,6.10
2018-05-29T02:35:27.117Z,5.67
2018-05-29T02:37:54.594Z,6.30
2018-05-29T02:40:22.837Z,6.07
2018-05-29T02:42:51.084Z,5.13
2018-05-29T02:45:18.529Z,6.13
2018-05-29T02:47:45.973Z,6.17
2018-05-29T02:50:14.191Z,6.10
2018-05-29T02:52:41.683Z,6.77
2018-05-29T02:55:09.148Z,6.00
2018-05-29T02:57:37.374Z,6.20
2018-05-29T03:00:05.602Z,5.90
2018-05-29T03:02:33.811Z,6.10
2018-05-29T03:05:01.283Z,5.53
2018-05-29T03:07:28.744Z,6.20
2018-05-29T03:09:56.237Z,6.37
2018-05-29T03:12:23.680Z,6.27
2018-05-29T03:14:51.163Z,6.63
2018-05-29T03:17:19.399Z,6.40
2018-05-29T03:19:46.883Z,5.67
2018-05-29T03:22:14.339Z,6.40
2018-05-29T03:24:41.792Z,6.13
2018-05-29T03:27:09.276Z,5.90
2018-05-29T03:29:37.501Z,6.47
2018-05-29T03:32:04.978Z,5.87
2018-05-29T03:34:32.487Z,5.33
2018-05-29T03:36:59.875Z,6.40
2018-05-29T03:39:27.334Z,5.60
2018-05-29T03:41:54.797Z,6.30
2018-05-29T03:44:22.289Z,5.67
2018-05-29T03:46:50.501Z,5.77
2018-05-29T03:49:18.005Z,6.37
2018-05-29T03:51:45.481Z,5.77
2018-05-29T03:54:12.957Z,5.20
2018-05-29T03:56:40.440Z,5.73
2018-05-29T03:59:07.904Z,6.20
2018-05-29T04:01:35.384Z,5.77
2018-05-29T04:04:02.839Z,5.93
2018-05-29T04:06:30.320Z,6.13
2018-05-29T04:08:57.769Z,5.37
2018-05-29T04:11:25.224Z,5.70
2018-05-29T04:13:52.682Z,5.63
2018-05-29T04:16:20.153Z,5.40
2018-05-29T04:18:48.392Z,5.60
2018-05-29T04:21:15.849Z,5.53
2018-05-29T04:23:43.316Z,5.97
2018-05-29T04:26:10.788Z,5.70
2018-05-29T04:28:38.269Z,5.43
2018-05-29T04:31:06.481Z,5.50
2018-05-29T04:33:33.945Z,5.07
2018-05-29T04:36:01.398Z,5.00
2018-05-29T04:38:28.889Z,5.30
2018-05-29T04:40:56.337Z,5.80
2018-05-29T04:43:23.806Z,5.17
2018-05-29T04:45:51.277Z,5.07
2018-05-29T04:48:19.515Z,5.90
2018-05-29T04:50:46.987Z,5.70
2018-05-29T04:53:14.447Z,5.70
2018-05-29T04:55:41.898Z,6.40
2018-05-29T04:58:09.377Z,5.43
2018-05-29T05:00:37.619Z,5.40
2018-05-29T05:03:05.091Z,5.50
2018-05-29T05:05:32.575Z,5.67
2018-05-29T05:08:00.809Z,6.83
2018-05-29T05:10:28.293Z,5.97
2018-05-29T05:12:55.760Z,5.60
2018-05-29T05:15:23.981Z,6.20
2018-05-29T05:17:51.465Z,6.27
2018-05-29T05:20:18.935Z,5.93
2018-05-29T05:22:46.427Z,5.70
2018-05-29T05:25:13.905Z,5.90
2018-05-29T05:27:41.365Z,6.60
2018-05-29T05:30:08.906Z,6.53
2018-05-29T05:32:36.320Z,5.87
2018-05-29T05:35:03.869Z,6.10
2018-05-29T05:37:32.080Z,5.47
2018-05-29T05:40:00.328Z,5.50
2018-05-29T05:42:27.812Z,5.90
2018-05-29T05:44:56.055Z,5.17
2018-05-29T05:47:23.530Z,4.97
2018-05-29T05:49:51.014Z,5.40
2018-05-29T05:52:19.228Z,5.50
2018-05-29T05:54:46.688Z,4.60
2018-05-29T05:57:14.173Z,5.10
2018-05-29T05:59:41.616Z,4.93
2018-05-29T06:02:09.089Z,5.20
2018-05-29T06:04:36.550Z,5.00
2018-05-29T06:07:04.049Z,4.40
2018-05-29T06:09:31.485Z,4.53
2018-05-29T06:11:59.719Z,4.87
2018-05-29T06:14:27.204Z,4.40
2018-05-29T06:16:54.681Z,4.37
2018-05-29T06:19:22.146Z,5.07
2018-05-29T06:21:49.605Z,4.13
2018-05-29T06:24:17.188Z,4.27
2018-05-29T06:26:44.614Z,4.97
2018-05-29T06:29:12.863Z,4.63
2018-05-29T06:31:40.337Z,5.00
2018-05-29T06:34:08.560Z,4.80
2018-05-29T06:36:36.770Z,4.87
2018-05-29T06:39:04.241Z,4.20
2018-05-29T06:41:31.713Z,4.83
2018-05-29T06:43:59.960Z,5.27
2018-05-29T06:46:27.433Z,5.07
2018-05-29T06:48:54.878Z,4.47
2018-05-29T06:51:22.355Z,4.40
2018-05-29T06:53:50.585Z,4.97
2018-05-29T06:56:18.034Z,4.50
2018-05-29T06:58:45.493Z,4.80
2018-05-29T07:01:12.933Z,4.70
2018-05-29T07:03:40.413Z,4.40
2018-05-29T07:06:07.905Z,4.80
2018-05-29T07:08:35.362Z,4.90
2018-05-29T07:11:02.809Z,4.63
2018-05-29T07:13:30.296Z,4.37
2018-05-29T07:15:59.104Z,4.43
2018-05-29T07:18:26.603Z,4.60
2018-05-29T07:20:54.060Z,5.20
2018-05-29T07:23:21.515Z,4.60
2018-05-29T07:25:48.997Z,4.80
2018-05-29T07:28:16.436Z,4.80
2018-05-29T07:30:43.927Z,4.50
2018-05-29T07:33:12.174Z,5.23
2018-05-29T07:35:39.640Z,4.87
2018-05-29T07:38:07.109Z,4.43
2018-05-29T07:40:34.589Z,5.27
2018-05-29T07:43:02.060Z,5.23
2018-05-29T07:45:29.531Z,4.33
2018-05-29T07:47:57.009Z,5.30
2018-05-29T07:50:24.504Z,4.77
2018-05-29T07:52:52.740Z,5.43
2018-05-29T07:55:20.193Z,5.43
2018-05-29T07:57:47.664Z,4.90
2018-05-29T08:00:15.113Z,5.47
2018-05-29T08:02:42.581Z,5.17
2018-05-29T08:05:10.074Z,5.80
2018-05-29T08:07:38.314Z,5.40
2018-05-29T08:10:05.796Z,5.93
2018-05-29T08:12:34.045Z,5.37
2018-05-29T08:15:01.492Z,5.70
2018-05-29T08:17:28.940Z,5.33
2018-05-29T08:19:56.513Z,4.87
2018-05-29T08:22:23.979Z,5.33
2018-05-29T08:24:51.433Z,5.10
2018-05-29T08:27:18.916Z,5.60
2018-05-29T08:29:46.395Z,5.60
2018-05-29T08:32:14.615Z,5.40
2018-05-29T08:34:42.067Z,5.57
2018-05-29T08:37:09.555Z,5.60
2018-05-29T08:39:37.061Z,4.93
2018-05-29T08:42:04.539Z,5.50
2018-05-29T08:44:32.053Z,5.67
2018-05-29T08:47:00.293Z,6.83
2018-05-29T08:49:27.745Z,6.23
2018-05-29T08:51:55.216Z,6.20
2018-05-29T08:54:22.677Z,5.97
2018-05-29T08:56:50.149Z,5.90
2018-05-29T08:59:18.513Z,6.20
2018-05-29T09:01:46.008Z,6.27
2018-05-29T09:04:13.493Z,6.30
2018-05-29T09:06:40.937Z,6.73
2018-05-29T09:09:08.408Z,6.33
2018-05-29T09:11:35.902Z,6.53
2018-05-29T09:14:03.383Z,6.17
2018-05-29T09:16:31.634Z,6.00
2018-05-29T09:18:59.093Z,6.00
2018-05-29T09:21:26.541Z,5.87
2018-05-29T09:23:54.024Z,6.47
2018-05-29T09:26:22.283Z,6.50
2018-05-29T09:28:49.734Z,6.10
2018-05-29T09:31:17.204Z,6.37
2018-05-29T09:33:44.677Z,6.73
2018-05-29T09:36:12.884Z,6.93
2018-05-29T09:38:40.364Z,7.10
2018-05-29T09:41:07.841Z,6.77
2018-05-29T09:43:35.288Z,7.17
2018-05-29T09:46:02.760Z,6.60
2018-05-29T09:48:30.232Z,6.57
2018-05-29T09:50:58.474Z,6.27
2018-05-29T09:53:25.913Z,6.80
2018-05-29T09:55:53.432Z,6.47
2018-05-29T09:58:20.881Z,6.03
2018-05-29T10:00:49.109Z,7.10
2018-05-29T10:03:16.592Z,6.97
2018-05-29T10:05:44.072Z,5.97
2018-05-29T10:08:11.551Z,7.00
2018-05-29T10:10:38.992Z,6.93
2018-05-29T10:13:07.250Z,6.60
2018-05-29T10:15:34.680Z,6.80
2018-05-29T10:18:02.139Z,6.63
2018-05-29T10:20:29.601Z,6.63
2018-05-29T10:22:57.050Z,6.93
2018-05-29T10:25:24.524Z,6.80
2018-05-29T10:27:52.004Z,6.27
2018-05-29T10:30:19.443Z,6.83
2018-05-29T10:32:46.935Z,6.40
2018-05-29T10:35:15.183Z,6.53
2018-05-29T10:37:42.634Z,6.80
2018-05-29T10:40:10.112Z,6.53
2018-05-29T10:42:37.582Z,6.50
2018-05-29T10:45:05.838Z,6.50
2018-05-29T10:47:33.276Z,6.47
2018-05-29T10:50:00.749Z,6.73
2018-05-29T10:52:28.255Z,7.23
2018-05-29T10:54:55.726Z,6.00
2018-05-29T10:57:23.190Z,6.90
2018-05-29T10:59:50.731Z,6.60
2018-05-29T11:02:18.199Z,6.17
2018-05-29T11:04:45.661Z,6.30
2018-05-29T11:07:13.901Z,6.57
2018-05-29T11:09:42.135Z,5.80
2018-05-29T11:12:09.608Z,6.70
2018-05-29T11:14:37.103Z,6.50
2018-05-29T11:17:05.348Z,5.90
2018-05-29T11:19:32.816Z,6.23
2018-05-29T11:22:00.308Z,6.60
2018-05-29T11:24:27.790Z,5.90
2018-05-29T11:26:55.257Z,6.83
2018-05-29T11:29:23.288Z,6.60
2018-05-29T11:31:50.792Z,6.63
2018-05-29T11:34:18.279Z,6.00
2018-05-29T11:36:45.752Z,6.40
2018-05-29T11:41:47.922Z,6.27
2018-05-29T11:44:15.370Z,6.47
2018-05-29T11:46:42.839Z,6.77
2018-05-29T11:49:10.320Z,6.80
2018-05-29T11:51:38.532Z,6.23
2018-05-29T11:54:06.032Z,5.97
2018-05-29T11:56:34.258Z,6.17
2018-05-29T11:59:01.741Z,6.73
2018-05-29T12:01:29.213Z,6.57
2018-05-29T12:03:56.666Z,6.83
2018-05-29T12:06:24.139Z,6.63
2018-05-29T12:08:51.623Z,6.50
2018-05-29T12:11:19.083Z,6.33
2018-05-29T12:13:46.553Z,7.03
2018-05-29T12:16:14.036Z,6.83
2018-05-29T12:18:41.500Z,7.00
2018-05-29T12:21:08.961Z,6.77
2018-05-29T12:23:36.988Z,7.37
2018-05-29T12:26:05.215Z,7.60
2018-05-29T12:28:32.676Z,6.73
2018-05-29T12:31:00.135Z,6.83
2018-05-29T12:33:27.581Z,7.10
2018-05-29T12:35:55.029Z,6.43
2018-05-29T12:38:22.490Z,6.93
2018-05-29T12:40:49.934Z,6.17
2018-05-29T12:43:17.420Z,6.53
2018-05-29T12:45:44.898Z,6.60
2018-05-29T12:48:12.373Z,6.40
2018-05-29T12:50:40.622Z,6.53
2018-05-29T12:53:08.090Z,6.90
2018-05-29T12:55:35.542Z,6.33
2018-05-29T12:58:03.016Z,6.07
2018-05-29T13:00:30.536Z,6.73
2018-05-29T13:02:57.996Z,6.87
2018-05-29T13:05:25.464Z,6.10
2018-05-29T13:07:52.905Z,6.40
2018-05-29T13:10:20.384Z,6.20
2018-05-29T13:12:47.867Z,6.90
2018-05-29T13:15:15.336Z,6.30
2018-05-29T13:17:43.549Z,6.30
2018-05-29T13:20:10.998Z,6.13
2018-05-29T13:22:38.623Z,7.37
2018-05-29T13:25:05.988Z,6.33
2018-05-29T13:27:33.461Z,6.70
2018-05-29T13:30:00.900Z,6.30
2018-05-29T13:32:29.164Z,5.93
2018-05-29T13:34:57.386Z,5.93
2018-05-29T13:37:24.880Z,5.90
2018-05-29T13:39:52.332Z,5.83
2018-05-29T13:42:19.791Z,5.67
2018-05-29T13:44:47.247Z,6.20
2018-05-29T13:47:14.744Z,5.57
2018-05-29T13:49:42.959Z,5.93
2018-05-29T13:52:10.421Z,6.47
2018-05-29T13:54:37.904Z,6.30
2018-05-29T13:57:05.356Z,5.30
2018-05-29T13:59:33.008Z,5.50
2018-05-29T14:02:00.461Z,6.57
2018-05-29T14:04:27.926Z,5.63
2018-05-29T14:06:55.398Z,5.63
2018-05-29T14:09:22.873Z,5.00
2018-05-29T14:11:51.112Z,4.00
2018-05-29T14:14:18.571Z,3.03
2018-05-29T14:16:46.032Z,3.20
2018-05-29T14:19:13.516Z,2.90
2018-05-29T14:21:40.973Z,2.90
2018-05-29T14:24:08.444Z,2.60
2018-05-29T14:26:36.660Z,2.70
2018-05-29T14:29:04.129Z,1.63
2018-05-29T14:31:31.580Z,1.93
2018-05-29T14:33:59.045Z,1.30
2018-05-29T14:36:26.520Z,1.50
2018-05-29T14:38:53.995Z,1.80
2018-05-29T14:41:21.457Z,1.50
2018-05-29T14:43:48.952Z,1.23
2018-05-29T14:46:17.183Z,1.60
2018-05-29T14:48:44.641Z,1.83
2018-05-29T14:51:12.111Z,1.57
2018-05-29T14:53:39.576Z,1.47
2018-05-29T14:56:07.032Z,1.53
2018-05-29T14:58:34.506Z,1.53
2018-05-29T15:01:01.997Z,1.67
2018-05-29T15:03:29.448Z,1.60
2018-05-29T15:05:56.936Z,1.93
2018-05-29T15:08:24.404Z,1.87
2018-05-29T15:10:51.880Z,2.17
2018-05-29T15:13:19.350Z,2.47
2018-05-29T15:15:47.580Z,2.30
2018-05-29T15:18:15.049Z,2.20
2018-05-29T15:20:42.505Z,2.23
2018-05-29T15:23:09.966Z,2.50
2018-05-29T15:25:37.439Z,2.57
2018-05-29T15:28:04.901Z,2.13
2018-05-29T15:30:32.364Z,2.50
2018-05-29T15:33:00.579Z,2.40
2018-05-29T15:35:28.054Z,2.33
2018-05-29T15:37:55.649Z,2.70
2018-05-29T15:40:23.708Z,3.13
2018-05-29T15:42:51.240Z,2.63
2018-05-29T15:45:18.689Z,2.77
2018-05-29T15:47:46.163Z,2.73
2018-05-29T15:50:13.618Z,2.73
2018-05-29T15:52:41.090Z,3.13
2018-05-29T15:55:08.545Z,2.60
2018-05-29T15:57:36.012Z,3.00
2018-05-29T16:00:03.479Z,3.27
2018-05-29T16:02:30.940Z,2.93
2018-05-29T16:04:58.397Z,2.90
2018-05-29T16:07:25.875Z,2.80
2018-05-29T16:09:53.340Z,3.00
2018-05-29T16:12:21.245Z,2.70
2018-05-29T16:14:48.732Z,2.53
2018-05-29T16:17:16.167Z,2.77
2018-05-29T16:19:43.656Z,2.50
2018-05-29T16:22:11.895Z,2.67
2018-05-29T16:24:39.381Z,2.23
2018-05-29T16:27:06.857Z,2.80
2018-05-29T16:29:35.153Z,2.20
2018-05-29T16:32:02.658Z,2.60
2018-05-29T16:34:30.107Z,2.40
2018-05-29T16:36:57.593Z,2.57
2018-05-29T16:39:25.036Z,2.50
2018-05-29T16:41:52.496Z,2.97
2018-05-29T16:44:19.956Z,2.77
2018-05-29T16:46:47.432Z,3.23
2018-05-29T16:49:15.662Z,3.00
2018-05-29T16:51:43.135Z,3.50
2018-05-29T16:54:10.583Z,3.53
2018-05-29T16:56:38.057Z,3.33
2018-05-29T16:59:05.528Z,3.20
2018-05-29T17:01:33.783Z,3.73
2018-05-29T17:04:01.249Z,4.20
2018-05-29T17:06:28.706Z,3.53
2018-05-29T17:08:56.160Z,4.20
2018-05-29T17:11:23.627Z,3.73
2018-05-29T17:13:51.109Z,4.50
2018-05-29T17:16:19.357Z,4.10
2018-05-29T17:18:46.820Z,4.60
2018-05-29T17:21:14.283Z,4.50
2018-05-29T17:23:42.522Z,4.70
2018-05-29T17:26:09.995Z,4.50
2018-05-29T17:28:37.453Z,5.00
2018-05-29T17:31:04.927Z,4.50
2018-05-29T17:33:32.405Z,4.37
2018-05-29T17:36:00.651Z,4.67
2018-05-29T17:38:28.115Z,4.80
2018-05-29T17:40:55.603Z,4.97
2018-05-29T17:43:23.859Z,5.40
2018-05-29T17:45:52.082Z,5.40
2018-05-29T17:48:19.565Z,5.73
2018-05-29T17:50:47.021Z,5.20
2018-05-29T17:53:14.530Z,5.73
2018-05-29T17:55:42.041Z,5.37
2018-05-29T17:58:09.512Z,5.07
2018-05-29T18:00:36.956Z,5.70
2018-05-29T18:03:04.458Z,5.40
2018-05-29T18:05:32.673Z,5.30
2018-05-29T18:08:00.334Z,6.50
2018-05-29T18:10:27.742Z,5.67
2018-05-29T18:12:55.959Z,5.50
2018-05-29T18:15:23.408Z,5.43
2018-05-29T18:17:50.881Z,4.77
2018-05-29T18:20:18.337Z,6.37
2018-05-29T18:22:45.817Z,5.57
2018-05-29T18:25:13.287Z,5.80
2018-05-29T18:27:40.728Z,6.83
2018-05-29T18:30:08.176Z,6.47
2018-05-29T18:32:35.665Z,5.97
2018-05-29T18:35:03.907Z,6.20
2018-05-29T18:37:31.366Z,5.97
2018-05-29T18:39:58.842Z,5.70
2018-05-29T18:42:26.311Z,5.77
2018-05-29T18:44:53.767Z,5.13
2018-05-29T18:47:21.230Z,4.90
2018-05-29T18:49:48.738Z,5.57
2018-05-29T18:52:16.208Z,5.53
2018-05-29T18:54:43.687Z,5.53
2018-05-29T18:57:11.132Z,5.13
2018-05-29T18:59:38.588Z,4.83
2018-05-29T19:02:06.039Z,4.70
2018-05-29T19:04:33.496Z,4.50
2018-05-29T19:07:00.997Z,4.43
2018-05-29T19:09:29.224Z,5.00
2018-05-29T19:11:56.690Z,5.33
2018-05-29T19:14:24.186Z,5.60
2018-05-29T19:16:52.678Z,5.47
2018-05-29T19:19:20.156Z,5.33
2018-05-29T19:21:47.584Z,5.07
2018-05-29T19:24:15.812Z,4.97
2018-05-29T19:26:43.268Z,5.37
2018-05-29T19:29:10.720Z,5.13
2018-05-29T19:31:38.189Z,5.23
2018-05-29T19:34:05.662Z,6.10
2018-05-29T19:36:33.108Z,5.30
2018-05-29T19:39:00.585Z,5.17
2018-05-29T19:41:28.057Z,5.70
2018-05-29T19:43:56.289Z,5.17
2018-05-29T19:46:23.748Z,4.80
2018-05-29T19:48:52.151Z,5.77
2018-05-29T19:51:19.605Z,5.37
2018-05-29T19:53:47.057Z,4.77
2018-05-29T19:56:14.503Z,4.27
2018-05-29T19:58:41.953Z,4.60
2018-05-29T20:01:09.452Z,4.80
2018-05-29T20:03:36.891Z,4.83
2018-05-29T20:06:04.348Z,4.90
2018-05-29T20:08:31.806Z,5.20
2018-05-29T20:10:59.243Z,4.70
2018-05-29T20:13:26.696Z,4.70
2018-05-29T20:15:54.145Z,5.23
2018-05-29T20:18:21.645Z,5.57
2018-05-29T20:20:49.113Z,4.80
2018-05-29T20:23:17.342Z,4.90
2018-05-29T20:25:44.876Z,5.10
2018-05-29T20:28:12.341Z,5.00
2018-05-29T20:30:39.802Z,5.43
2018-05-29T20:33:07.253Z,5.77
2018-05-29T20:35:34.739Z,5.93
2018-05-29T20:38:02.395Z,5.43
2018-05-29T20:40:29.853Z,5.13
2018-05-29T20:42:57.335Z,5.37
2018-05-29T20:45:24.793Z,4.60
2018-05-29T20:47:52.239Z,4.07
2018-05-29T20:50:19.722Z,4.83
2018-05-29T20:52:47.179Z,4.40
2018-05-29T20:55:15.483Z,4.40
2018-05-29T20:57:42.916Z,4.53
2018-05-29T21:00:11.175Z,4.73
2018-05-29T21:02:38.616Z,4.47
2018-05-29T21:05:06.078Z,4.47
2018-05-29T21:07:33.527Z,5.10
2018-05-29T21:10:00.976Z,5.00
2018-05-29T21:12:28.452Z,3.73
2018-05-29T21:14:55.913Z,4.43
2018-05-29T21:17:23.406Z,4.50
2018-05-29T21:19:50.888Z,4.47
2018-05-29T21:22:18.431Z,4.17
2018-05-29T21:24:45.823Z,4.53
2018-05-29T21:27:13.313Z,4.23
2018-05-29T21:29:40.819Z,4.30
2018-05-29T21:32:08.269Z,4.63
2018-05-29T21:34:35.735Z,4.13
2018-05-29T21:37:03.212Z,4.03
2018-05-29T21:39:30.666Z,4.13
2018-05-29T21:41:58.113Z,4.20
2018-05-29T21:44:25.583Z,4.60
2018-05-29T21:46:53.019Z,4.67
2018-05-29T21:49:20.476Z,4.77
2018-05-29T21:51:47.951Z,4.80
2018-05-29T21:54:15.434Z,4.20
2018-05-29T21:56:42.895Z,4.50
2018-05-29T21:59:10.362Z,4.77
2018-05-29T22:01:37.839Z,4.10
2018-05-29T22:04:06.076Z,4.20
2018-05-29T22:06:34.306Z,5.33
2018-05-29T22:09:01.761Z,4.53
2018-05-29T22:11:29.223Z,4.80
2018-05-29T22:13:56.686Z,4.23
2018-05-29T22:16:24.133Z,4.70
2018-05-29T22:18:51.660Z,4.43
2018-05-29T22:21:19.907Z,4.20
2018-05-29T22:23:47.384Z,3.80
2018-05-29T22:26:14.943Z,4.23
2018-05-29T22:28:42.405Z,3.27
2018-05-29T22:31:09.885Z,3.60
2018-05-29T22:33:38.108Z,3.40
2018-05-29T22:36:05.568Z,3.23
2018-05-29T22:38:33.062Z,3.03
2018-05-29T22:41:01.266Z,3.13
2018-05-29T22:43:28.731Z,2.83
2018-05-29T22:45:56.216Z,3.77
2018-05-29T22:48:23.696Z,3.37
2018-05-29T22:50:51.336Z,3.10
2018-05-29T22:53:18.792Z,3.17
2018-05-29T22:55:46.253Z,3.07
2018-05-29T22:58:13.714Z,3.00
2018-05-29T23:00:41.152Z,3.20
2018-05-29T23:03:08.636Z,2.93
2018-05-29T23:05:36.108Z,3.33
2018-05-29T23:08:03.548Z,3.27
2018-05-29T23:10:31.014Z,3.00
2018-05-29T23:12:58.497Z,3.50
2018-05-29T23:15:26.735Z,3.23
2018-05-29T23:17:54.189Z,2.80
2018-05-29T23:20:21.672Z,3.60
2018-05-29T23:22:49.140Z,3.80
2018-05-29T23:25:16.612Z,3.77
2018-05-29T23:27:44.068Z,3.20
2018-05-29T23:30:11.547Z,3.67
2018-05-29T23:32:38.997Z,3.00
2018-05-29T23:35:06.453Z,3.20
2018-05-29T23:37:33.911Z,4.07
2018-05-29T23:40:01.358Z,4.10
2018-05-29T23:42:28.801Z,3.67
2018-05-29T23:44:57.023Z,3.67
2018-05-29T23:47:24.471Z,3.70
2018-05-29T23:49:51.916Z,3.37
2018-05-29T23:52:19.370Z,3.97
2018-05-29T23:54:46.825Z,3.60
2018-05-29T23:57:14.288Z,3.27
2018-05-29T23:59:41.748Z,3.67
